»·PEaware :: N898AJ KDPG-6S0

N898AJ :: KDPG-6S0

FLIGHT INFORMATION

Flight Status: Arrived
Operator: Privately registered:
United States
More flights under this callsign
Pilot: Andrew J. (13363)
Aircraft: PILATUS PC-12 EAGLE
(PC12)
More flights by this aircraft type
Origin: KDPG Michael AAF
United States
Destination: 6S0 Big Timber
United States
More flights between these airports :: More routes between these airports
Route: FFU J9 DBS LVM
File this flight plan on PilotEdge
Remarks:
Altitude:
(Current/Filed)
29,000ft
Speed:
(Current/Filed)
240kts
Departed: 06-May-19 04:39 PM
Arrived: 06-May-19 06:15 PM
Distance/Time
Traveled:
361nm/1:35
Distance/Time
To Go:
Arrived

Flight Plot

Page will automatically refresh every two minutes.

Flight plan parsing failed; only flown route is shown


Map Options




Map Legend


Flown Route
Filed Route
Departure Airport
Arrival Airport
Navaid (VOR, NDB)
Fix

Horizontal Profiles

Position Reports

Time Latitude Longitude Heading Altitude Ground
Speed
06-May-19 16:35 40.211972 -112.954141 135 4339ft 0kts
06-May-19 16:36 40.211972 -112.954141 135 4339ft 0kts
06-May-19 16:37 40.211972 -112.954141 135 4339ft 0kts
06-May-19 16:38 40.206050 -112.946483 137 4480ft 106kts
06-May-19 16:39 40.201022 -112.911732 49 5994ft 119kts
06-May-19 16:40 40.204050 -112.865019 91 7637ft 142kts
06-May-19 16:41 40.207412 -112.813043 87 9416ft 151kts
06-May-19 16:42 40.212657 -112.748338 86 9501ft 193kts
06-May-19 16:43 40.218305 -112.677513 86 9500ft 196kts
06-May-19 16:44 40.224117 -112.605602 86 9499ft 197kts
06-May-19 16:45 40.229632 -112.534935 86 9499ft 194kts
06-May-19 16:46 40.235003 -112.466641 86 9476ft 196kts
06-May-19 16:47 40.240463 -112.396602 86 9860ft 185kts
06-May-19 16:48 40.245496 -112.330790 84 11137ft 178kts
06-May-19 16:49 40.250472 -112.267376 81 12439ft 178kts
06-May-19 16:50 40.264717 -112.207404 15 13519ft 178kts
06-May-19 16:51 40.313638 -112.194106 13 14527ft 183kts
06-May-19 16:52 40.363158 -112.175540 15 16439ft 190kts
06-May-19 16:53 40.413378 -112.155676 15 18461ft 198kts
06-May-19 16:54 40.467276 -112.134580 15 20196ft 209kts
06-May-19 16:55 40.523826 -112.112176 18 22024ft 216kts
06-May-19 16:56 40.582700 -112.088775 18 23431ft 225kts
06-May-19 16:57 40.643619 -112.064677 19 24674ft 231kts
06-May-19 16:58 40.704174 -112.040360 19 26174ft 224kts
06-May-19 16:59 40.764507 -112.016288 19 27371ft 228kts
06-May-19 17:00 40.825675 -111.991821 19 28421ft 232kts
06-May-19 17:01 40.892693 -111.984791 357 28867ft 261kts
06-May-19 17:02 40.964217 -111.989563 357 28866ft 279kts
06-May-19 17:03 41.043796 -111.994884 357 28866ft 289kts
06-May-19 17:04 41.123528 -112.000347 357 28863ft 293kts
06-May-19 17:05 41.204816 -112.005815 357 28863ft 292kts
06-May-19 17:06 41.278978 -112.010651 357 28863ft 285kts
06-May-19 17:07 41.358047 -112.016002 357 28891ft 285kts
06-May-19 17:08 41.436688 -112.021483 357 28922ft 282kts
06-May-19 17:09 41.514772 -112.026730 357 28928ft 280kts
06-May-19 17:10 41.592829 -112.032137 356 28928ft 285kts
06-May-19 17:13 41.828272 -112.048345 356 28928ft 286kts
06-May-19 17:14 41.907824 -112.053773 356 28929ft 287kts
06-May-19 17:15 41.987818 -112.059322 357 28930ft 287kts
06-May-19 17:16 42.067067 -112.064590 356 28931ft 284kts
06-May-19 17:17 42.145651 -112.070051 356 28928ft 283kts
06-May-19 17:18 42.224069 -112.075475 356 28928ft 284kts
06-May-19 17:19 42.303766 -112.081270 356 28927ft 288kts
06-May-19 17:20 42.383073 -112.086731 356 28927ft 284kts
06-May-19 17:21 42.461840 -112.092344 356 28927ft 282kts
06-May-19 17:22 42.540205 -112.097829 356 28928ft 282kts
06-May-19 17:23 42.616605 -112.087513 26 28923ft 281kts
06-May-19 17:24 42.687666 -112.042067 24 28927ft 282kts
06-May-19 17:25 42.758806 -111.997712 24 28932ft 279kts
06-May-19 17:26 42.829011 -111.953782 23 28942ft 276kts
06-May-19 17:27 42.899162 -111.909481 23 28952ft 282kts
06-May-19 17:28 42.970462 -111.864512 23 28960ft 284kts
06-May-19 17:29 43.041810 -111.819549 23 28965ft 279kts
06-May-19 17:30 43.107377 -111.778172 23 28978ft 274kts
06-May-19 17:31 43.176166 -111.734342 23 28993ft 270kts
06-May-19 17:32 43.244168 -111.691165 22 29001ft 269kts
06-May-19 17:33 43.312039 -111.647986 22 29001ft 268kts
06-May-19 17:34 43.379510 -111.604733 22 29002ft 269kts
06-May-19 17:35 43.448238 -111.560646 22 29002ft 273kts
06-May-19 17:36 43.517718 -111.516275 22 29002ft 276kts
06-May-19 17:37 43.587592 -111.471145 22 29002ft 278kts
06-May-19 17:38 43.657653 -111.425806 22 29003ft 280kts
06-May-19 17:39 43.728770 -111.379749 22 28983ft 283kts
06-May-19 17:40 43.800531 -111.333259 23 28944ft 286kts
06-May-19 17:41 43.872105 -111.286656 23 28918ft 279kts
06-May-19 17:43 44.008083 -111.197832 22 28919ft 273kts
06-May-19 17:44 44.077038 -111.152697 22 28918ft 269kts
06-May-19 17:45 44.144107 -111.108616 21 28920ft 266kts
06-May-19 17:46 44.211423 -111.064222 21 28943ft 270kts
06-May-19 17:47 44.279760 -111.019140 21 28965ft 273kts
06-May-19 17:48 44.348295 -110.973509 21 28994ft 273kts
06-May-19 17:49 44.416750 -110.928148 21 29025ft 271kts
06-May-19 17:50 44.485031 -110.882713 21 29044ft 271kts
06-May-19 17:51 44.552347 -110.837845 21 28097ft 276kts
06-May-19 17:52 44.623793 -110.789884 21 26626ft 288kts
06-May-19 17:53 44.693722 -110.742980 21 25165ft 284kts
06-May-19 17:54 44.764957 -110.694909 21 23674ft 286kts
06-May-19 17:55 44.835240 -110.647458 21 22219ft 287kts
06-May-19 17:56 44.906502 -110.599214 21 20729ft 282kts
06-May-19 17:57 44.977253 -110.551185 21 19239ft 284kts
06-May-19 17:58 45.045334 -110.504717 21 17786ft 275kts
06-May-19 17:59 45.112737 -110.458724 21 16318ft 272kts
06-May-19 18:00 45.181397 -110.421648 353 14886ft 261kts
06-May-19 18:01 45.252919 -110.425283 354 14075ft 245kts
06-May-19 18:02 45.321362 -110.427942 354 13744ft 257kts
06-May-19 18:03 45.393570 -110.430840 354 13376ft 257kts
06-May-19 18:04 45.463683 -110.433251 354 13378ft 247kts
06-May-19 18:05 45.532573 -110.436069 354 13389ft 251kts
06-May-19 18:06 45.604547 -110.438745 354 13402ft 263kts
06-May-19 18:07 45.676150 -110.441454 355 13016ft 274kts
06-May-19 18:08 45.732060 -110.372397 56 12606ft 285kts
06-May-19 18:09 45.772864 -110.274235 64 11398ft 283kts
06-May-19 18:10 45.766977 -110.171844 76 9359ft 235kts
06-May-19 18:11 45.783624 -110.093868 76 6822ft 168kts
06-May-19 18:12 45.793698 -110.046440 76 5901ft 136kts
06-May-19 18:13 45.801794 -110.004482 76 4825ft 78kts
06-May-19 18:14 45.806358 -109.980859 70 4496ft 29kts
06-May-19 18:15 45.807435 -109.975483 74 4496ft 20kts
06-May-19 18:16 45.808720 -109.974039 73 4496ft 0kts
06-May-19 18:17 45.808720 -109.974039 72 4496ft 0kts

Navigation Log

Ident Type
Flight plan parsing failed, navigation log unavailable